Time;durP1;ratioP1;P1;durP2;ratioP2;P2;SDS_P1;SDS_P2;PMS_P1;PMS_P2;Temp;Humidity;BMP_temperature;BMP_pressure;BME280_temperature;BME280_humidity;BME280_pressure;Samples;Min_cycle;Max_cycle;Signal;HPM_P1;HPM_P2
2022/03/14 00:00:47;;;;;;;6.75;3.15;;;10.90;75.70;;;;;;4970823;28;20034;-79
2022/03/14 00:03:15;;;;;;;2.72;2.45;;;10.90;75.80;;;;;;4985260;28;20477;-78
2022/03/14 00:05:41;;;;;;;5.07;3.20;;;10.90;75.70;;;;;;4977089;28;20022;-79
2022/03/14 00:08:07;;;;;;;4.70;2.90;;;10.90;75.60;;;;;;5000902;28;20108;-79
2022/03/14 00:10:34;;;;;;;4.30;2.13;;;10.90;75.30;;;;;;4997767;28;20512;-78
2022/03/14 00:13:00;;;;;;;5.47;3.25;;;10.90;75.40;;;;;;4993469;28;20025;-78
2022/03/14 00:15:32;;;;;;;3.65;2.55;;;10.80;75.60;;;;;;4999932;28;20285;-79
2022/03/14 00:18:01;;;;;;;3.22;2.67;;;10.70;75.60;;;;;;4976126;28;20257;-79
2022/03/14 00:20:26;;;;;;;6.90;4.28;;;10.70;75.60;;;;;;5015077;28;20505;-79
2022/03/14 00:22:52;;;;;;;6.15;4.13;;;10.70;75.80;;;;;;4977581;28;20028;-79
2022/03/14 00:25:18;;;;;;;8.25;6.10;;;10.60;76.00;;;;;;4992851;28;20236;-79
2022/03/14 00:27:43;;;;;;;5.53;3.70;;;10.50;76.20;;;;;;5000083;28;20028;-79
2022/03/14 00:30:10;;;;;;;6.25;4.38;;;10.50;76.20;;;;;;4965339;28;20225;-79
2022/03/14 00:32:36;;;;;;;8.98;3.45;;;10.50;75.80;;;;;;4975505;28;20041;-79
2022/03/14 00:35:03;;;;;;;7.97;6.25;;;10.50;75.90;;;;;;4990373;28;20056;-79
2022/03/14 00:37:28;;;;;;;5.60;3.47;;;10.40;76.50;;;;;;4967025;28;20137;-79
2022/03/14 00:39:54;;;;;;;7.80;5.05;;;10.30;76.80;;;;;;5014547;28;20199;-79
2022/03/14 00:42:22;;;;;;;5.82;4.10;;;10.30;76.70;;;;;;4976221;28;20033;-80
2022/03/14 00:44:49;;;;;;;4.18;3.17;;;10.20;77.10;;;;;;4999423;28;20044;-80
2022/03/14 00:47:16;;;;;;;4.20;2.58;;;10.20;77.40;;;;;;4974340;28;20537;-80
2022/03/14 00:49:41;;;;;;;5.85;3.30;;;10.20;77.90;;;;;;4969886;28;20036;-80
2022/03/14 00:52:07;;;;;;;5.45;3.65;;;10.30;78.10;;;;;;5001387;28;20052;-81
2022/03/14 00:54:32;;;;;;;3.58;3.13;;;10.30;78.10;;;;;;4981858;28;20240;-80
2022/03/14 00:56:58;;;;;;;6.80;3.90;;;10.20;78.00;;;;;;4980884;28;20170;-80
2022/03/14 00:59:24;;;;;;;7.63;3.58;;;10.10;79.90;;;;;;4984553;28;20103;-81
2022/03/14 01:01:51;;;;;;;5.13;3.50;;;10.10;78.70;;;;;;4998043;28;20033;-81
2022/03/14 01:04:16;;;;;;;4.82;3.08;;;10.10;79.70;;;;;;4974174;28;20627;-81
2022/03/14 01:06:42;;;;;;;6.82;4.68;;;10.10;78.60;;;;;;4998919;28;20113;-81
2022/03/14 01:09:11;;;;;;;6.38;4.15;;;10.10;79.80;;;;;;5004506;28;20033;-81
2022/03/14 01:11:37;;;;;;;7.53;4.72;;;10.10;80.80;;;;;;4999027;28;20529;-81
2022/03/14 01:14:03;;;;;;;8.20;4.70;;;10.00;81.10;;;;;;4973915;28;20114;-81
2022/03/14 01:16:29;;;;;;;8.25;5.32;;;9.90;82.00;;;;;;4984803;28;20037;-81
2022/03/14 01:18:54;;;;;;;11.25;4.78;;;9.90;81.80;;;;;;4997973;28;20038;-80
2022/03/14 01:21:20;;;;;;;10.52;5.10;;;9.60;83.80;;;;;;4981502;28;20401;-80
2022/03/14 01:23:45;;;;;;;5.07;3.60;;;9.60;86.20;;;;;;4966221;28;20516;-80
2022/03/14 01:26:11;;;;;;;5.60;3.90;;;9.80;84.20;;;;;;4975819;28;20503;-80
2022/03/14 01:28:37;;;;;;;5.45;3.53;;;9.90;84.70;;;;;;4967193;28;20030;-80
2022/03/14 01:31:02;;;;;;;7.20;4.43;;;9.90;83.80;;;;;;4974541;28;20037;-80
2022/03/14 01:33:28;;;;;;;5.35;3.88;;;9.90;84.90;;;;;;4968777;28;20034;-80
2022/03/14 01:35:53;;;;;;;4.45;3.50;;;9.90;84.60;;;;;;4974526;28;20036;-80
2022/03/14 01:38:19;;;;;;;4.55;2.92;;;10.00;84.50;;;;;;4975243;28;20040;-80
2022/03/14 01:40:44;;;;;;;6.50;4.35;;;10.00;84.70;;;;;;4973697;28;20250;-80
2022/03/14 01:43:10;;;;;;;5.57;3.67;;;10.00;85.90;;;;;;4974057;28;20036;-80
2022/03/14 01:45:35;;;;;;;6.03;3.67;;;10.00;87.40;;;;;;4994588;28;20036;-81
2022/03/14 01:48:01;;;;;;;5.00;3.47;;;9.90;87.90;;;;;;4974829;28;20560;-80
2022/03/14 01:50:27;;;;;;;3.92;2.92;;;9.90;90.00;;;;;;4987372;28;20630;-80
2022/03/14 01:52:52;;;;;;;4.60;3.40;;;10.00;90.10;;;;;;4995464;28;20062;-81
2022/03/14 01:55:18;;;;;;;6.53;3.60;;;9.90;91.20;;;;;;4988599;28;20188;-81
2022/03/14 01:57:44;;;;;;;7.40;4.38;;;9.90;91.60;;;;;;4989017;28;20018;-80
2022/03/14 02:00:11;;;;;;;5.05;3.88;;;9.90;92.50;;;;;;4968252;28;20041;-81
2022/03/14 02:02:36;;;;;;;6.45;4.30;;;9.90;93.60;;;;;;4989179;28;20038;-81
2022/03/14 02:05:02;;;;;;;6.00;4.38;;;9.80;93.30;;;;;;4984398;28;20033;-81
2022/03/14 02:07:28;;;;;;;4.68;3.50;;;9.80;94.30;;;;;;4984330;28;20048;-81
2022/03/14 02:09:53;;;;;;;6.30;4.78;;;9.80;93.10;;;;;;4971882;28;20030;-81
2022/03/14 02:12:19;;;;;;;5.93;4.05;;;9.70;94.80;;;;;;4994880;28;20040;-81
2022/03/14 02:14:44;;;;;;;7.78;4.28;;;9.70;93.20;;;;;;4996640;28;20033;-81
2022/03/14 02:17:14;;;;;;;5.25;3.55;;;9.60;92.70;;;;;;4999528;28;20033;-81
2022/03/14 02:19:40;;;;;;;6.40;3.90;;;9.60;92.70;;;;;;4986070;28;20044;-81
2022/03/14 02:22:09;;;;;;;5.47;3.70;;;9.60;93.10;;;;;;4971112;28;20037;-81
2022/03/14 02:24:34;;;;;;;4.03;3.50;;;9.60;93.50;;;;;;4996220;28;20417;-80
2022/03/14 02:27:00;;;;;;;6.57;4.47;;;9.70;95.00;;;;;;4997547;28;20034;-81
2022/03/14 02:29:25;;;;;;;8.60;4.95;;;9.70;95.10;;;;;;4999487;28;20622;-80
2022/03/14 02:31:52;;;;;;;8.27;4.53;;;9.70;96.50;;;;;;4982742;28;20117;-80
2022/03/14 02:34:17;;;;;;;7.55;4.10;;;9.70;96.60;;;;;;4974718;28;20030;-80
2022/03/14 02:36:43;;;;;;;6.93;4.78;;;9.70;97.60;;;;;;4988802;28;20515;-80
2022/03/14 02:39:08;;;;;;;9.43;4.47;;;9.70;97.60;;;;;;4981746;28;20045;-81
2022/03/14 02:41:35;;;;;;;7.63;4.70;;;9.70;97.20;;;;;;4971733;28;20037;-80
2022/03/14 02:44:01;;;;;;;6.88;4.57;;;9.70;99.00;;;;;;4973283;28;20499;-80
2022/03/14 02:46:27;;;;;;;5.13;4.20;;;9.70;99.90;;;;;;4998329;28;20378;-80
2022/03/14 02:48:52;;;;;;;6.97;4.55;;;9.50;99.90;;;;;;5004583;28;20034;-81
2022/03/14 02:51:18;;;;;;;6.45;4.60;;;9.50;99.90;;;;;;4974602;28;20160;-78
2022/03/14 02:53:43;;;;;;;6.18;3.75;;;9.50;99.90;;;;;;4999920;28;20401;-78
2022/03/14 02:56:09;;;;;;;5.25;3.95;;;9.60;99.90;;;;;;4988332;28;20120;-78
2022/03/14 02:58:39;;;;;;;7.03;4.00;;;9.60;99.90;;;;;;4998469;28;20505;-78
2022/03/14 03:01:04;;;;;;;7.53;4.60;;;9.60;99.90;;;;;;4968174;28;20022;-78
2022/03/14 03:03:31;;;;;;;6.97;4.95;;;9.60;99.90;;;;;;4974685;28;20044;-78
2022/03/14 03:05:56;;;;;;;9.32;4.40;;;9.60;99.90;;;;;;4975997;28;20392;-78
2022/03/14 03:08:22;;;;;;;8.77;5.13;;;9.60;99.90;;;;;;5002489;28;20050;-78
2022/03/14 03:10:48;;;;;;;8.70;4.55;;;9.70;99.90;;;;;;4970458;28;20030;-79
2022/03/14 03:13:14;;;;;;;5.93;3.95;;;9.60;99.90;;;;;;4977837;28;20032;-78
2022/03/14 03:15:39;;;;;;;5.32;4.38;;;9.60;99.90;;;;;;4980721;28;20145;-79
2022/03/14 03:18:05;;;;;;;5.75;4.35;;;9.50;99.90;;;;;;4985756;28;20025;-79
2022/03/14 03:20:31;;;;;;;7.25;4.72;;;9.50;99.90;;;;;;4990577;28;20091;-79
2022/03/14 03:22:56;;;;;;;5.68;3.80;;;9.50;99.90;;;;;;5015000;28;20113;-79
2022/03/14 03:25:22;;;;;;;7.63;4.40;;;9.60;99.90;;;;;;4986408;28;20037;-79
2022/03/14 03:27:47;;;;;;;7.97;4.85;;;9.50;99.90;;;;;;5002266;28;20026;-79
2022/03/14 03:30:13;;;;;;;5.82;4.38;;;9.60;99.90;;;;;;4980989;28;20034;-79
2022/03/14 03:32:39;;;;;;;5.88;4.22;;;9.40;99.90;;;;;;4986940;28;20041;-79
2022/03/14 03:35:04;;;;;;;5.68;4.00;;;9.40;99.90;;;;;;4984937;28;20034;-79
2022/03/14 03:37:30;;;;;;;6.38;3.92;;;9.40;99.90;;;;;;4983574;28;20030;-80
2022/03/14 03:39:55;;;;;;;4.82;3.30;;;9.50;99.90;;;;;;4984113;28;20041;-79
2022/03/14 03:42:21;;;;;;;7.22;4.80;;;9.50;99.90;;;;;;4982570;28;20040;-78
2022/03/14 03:44:46;;;;;;;5.45;3.83;;;9.40;99.90;;;;;;5001062;28;20037;-79
2022/03/14 03:47:15;;;;;;;6.40;5.13;;;9.40;99.90;;;;;;4985171;28;20081;-79
2022/03/14 03:49:40;;;;;;;6.85;4.47;;;9.40;99.90;;;;;;4971146;28;20061;-79
2022/03/14 03:52:07;;;;;;;9.02;6.13;;;9.30;99.90;;;;;;4969001;28;20553;-79
2022/03/14 03:54:33;;;;;;;12.05;5.03;;;9.30;99.90;;;;;;4974494;28;20041;-78
2022/03/14 03:56:58;;;;;;;10.95;5.47;;;9.30;99.90;;;;;;5000626;28;20456;-79
2022/03/14 03:59:24;;;;;;;10.10;6.18;;;9.20;99.90;;;;;;4973745;28;20184;-77
2022/03/14 04:01:50;;;;;;;7.97;4.90;;;9.30;99.90;;;;;;4996695;28;20054;-78
2022/03/14 04:04:16;;;;;;;12.10;5.20;;;9.30;99.90;;;;;;4984456;28;20040;-78
2022/03/14 04:06:42;;;;;;;7.57;4.88;;;9.20;99.90;;;;;;4984370;28;20113;-78
2022/03/14 04:09:07;;;;;;;8.02;4.40;;;9.20;99.90;;;;;;4991460;28;20037;-78
2022/03/14 04:11:33;;;;;;;9.40;5.13;;;9.30;99.90;;;;;;4974973;28;20040;-78
2022/03/14 04:13:59;;;;;;;8.75;5.00;;;9.30;99.90;;;;;;4985128;28;20029;-77
2022/03/14 04:16:27;;;;;;;4.70;3.80;;;9.40;99.90;;;;;;4967690;28;20034;-78
2022/03/14 04:18:53;;;;;;;10.00;4.85;;;9.30;99.90;;;;;;4986913;28;20096;-78
2022/03/14 04:21:20;;;;;;;10.60;5.93;;;9.40;99.90;;;;;;4976424;28;20497;-78
2022/03/14 04:23:45;;;;;;;4.78;4.07;;;9.40;99.90;;;;;;5006346;28;20045;-78
2022/03/14 04:26:11;;;;;;;7.88;4.65;;;9.20;99.90;;;;;;4990610;28;20523;-78
2022/03/14 04:28:36;;;;;;;8.32;5.95;;;9.30;99.90;;;;;;5004062;28;20030;-79
2022/03/14 04:31:03;;;;;;;8.52;4.68;;;9.20;99.90;;;;;;4976547;28;20120;-78
2022/03/14 04:33:30;;;;;;;5.38;4.28;;;9.20;99.90;;;;;;5002431;28;20034;-77
2022/03/14 04:35:56;;;;;;;7.22;4.78;;;9.20;99.90;;;;;;4977991;28;20035;-77
2022/03/14 04:38:22;;;;;;;7.88;4.43;;;9.20;99.90;;;;;;4984756;28;20029;-78
2022/03/14 04:40:49;;;;;;;6.57;4.47;;;9.20;99.90;;;;;;5000375;28;20372;-77
2022/03/14 04:43:14;;;;;;;7.28;4.28;;;9.20;99.90;;;;;;4971345;28;20076;-77
2022/03/14 04:45:40;;;;;;;12.25;6.20;;;9.30;99.90;;;;;;4987371;28;20532;-77
2022/03/14 04:48:06;;;;;;;9.32;6.22;;;9.30;99.90;;;;;;5002593;28;20044;-78
2022/03/14 04:50:32;;;;;;;6.45;4.82;;;9.30;99.90;;;;;;4968274;28;20022;-77
2022/03/14 04:52:57;;;;;;;6.07;4.18;;;9.10;99.90;;;;;;4991318;28;20509;-77
2022/03/14 04:55:23;;;;;;;7.78;4.75;;;9.20;99.90;;;;;;4986786;28;20053;-79
2022/03/14 04:57:49;;;;;;;12.52;5.97;;;9.20;99.90;;;;;;4989215;28;20060;-77
2022/03/14 05:00:14;;;;;;;8.70;6.70;;;9.20;99.90;;;;;;4995780;28;20034;-77
2022/03/14 05:02:40;;;;;;;8.32;4.22;;;9.20;99.90;;;;;;4989281;28;20076;-77
2022/03/14 05:05:10;;;;;;;6.57;4.18;;;9.30;99.90;;;;;;4992455;28;20052;-78
2022/03/14 05:07:38;;;;;;;3.22;1.85;;;9.30;99.90;;;;;;4977125;28;20493;-77
2022/03/14 05:10:07;;;;;;;6.68;4.95;;;9.30;99.90;;;;;;4985751;28;20037;-77
2022/03/14 05:12:34;;;;;;;5.05;4.07;;;9.40;99.90;;;;;;5000302;28;20552;-78
2022/03/14 05:15:00;;;;;;;5.70;4.40;;;9.40;99.90;;;;;;4973375;28;20433;-78
2022/03/14 05:17:25;;;;;;;4.70;3.30;;;9.30;99.90;;;;;;4989840;28;20095;-77
2022/03/14 05:19:51;;;;;;;6.35;4.50;;;9.30;99.90;;;;;;4993505;28;20327;-77
2022/03/14 05:22:18;;;;;;;6.70;5.18;;;9.30;99.90;;;;;;4968693;28;20034;-78
2022/03/14 05:24:44;;;;;;;7.50;5.40;;;9.40;99.90;;;;;;4982170;28;20038;-77
2022/03/14 05:27:10;;;;;;;7.38;6.05;;;9.40;99.90;;;;;;4995866;28;20117;-77
2022/03/14 05:29:35;;;;;;;6.65;5.28;;;9.30;99.90;;;;;;5000324;28;20457;-78
2022/03/14 05:32:01;;;;;;;6.75;5.18;;;9.30;99.90;;;;;;5001445;28;20378;-77
2022/03/14 05:34:27;;;;;;;8.90;6.07;;;9.30;99.90;;;;;;5016091;28;20514;-77
2022/03/14 05:36:52;;;;;;;8.55;7.13;;;9.30;99.90;;;;;;4986738;28;20030;-77
2022/03/14 05:39:18;;;;;;;10.05;7.28;;;9.20;99.90;;;;;;4984130;28;20038;-77
2022/03/14 05:41:44;;;;;;;8.90;6.20;;;9.20;99.90;;;;;;4997294;28;20038;-76
2022/03/14 05:44:10;;;;;;;8.90;6.85;;;9.30;99.90;;;;;;4968011;28;20038;-77
2022/03/14 05:46:35;;;;;;;16.20;7.55;;;9.20;99.90;;;;;;4989998;28;20484;-77
2022/03/14 05:49:01;;;;;;;7.63;5.82;;;9.20;99.90;;;;;;4975000;28;20557;-77
2022/03/14 05:51:26;;;;;;;8.07;6.28;;;9.10;99.90;;;;;;5003445;28;20470;-78
2022/03/14 05:53:52;;;;;;;7.60;5.50;;;9.20;99.90;;;;;;4999345;28;20030;-77
2022/03/14 05:56:18;;;;;;;8.65;5.93;;;9.20;99.90;;;;;;4984684;28;20040;-77
2022/03/14 05:58:43;;;;;;;7.38;5.38;;;9.20;99.90;;;;;;4991795;28;20568;-77
2022/03/14 06:01:10;;;;;;;10.43;6.55;;;9.30;99.90;;;;;;4972624;28;20033;-77
2022/03/14 06:03:35;;;;;;;8.32;6.55;;;9.20;99.90;;;;;;4986900;28;20025;-78
2022/03/14 06:06:02;;;;;;;8.55;5.47;;;9.20;99.90;;;;;;4974623;28;20083;-77
2022/03/14 06:08:27;;;;;;;12.88;7.35;;;9.20;99.90;;;;;;4998715;28;20046;-77
2022/03/14 06:10:55;;;;;;;5.35;3.95;;;9.20;99.90;;;;;;4986574;28;20026;-79
2022/03/14 06:13:20;;;;;;;10.52;7.47;;;9.40;99.90;;;;;;4988474;28;20121;-78
2022/03/14 06:15:47;;;;;;;7.25;5.88;;;9.20;99.90;;;;;;4975185;28;20100;-80
2022/03/14 06:18:13;;;;;;;7.90;5.22;;;9.20;99.90;;;;;;4968555;28;20075;-78
2022/03/14 06:20:38;;;;;;;10.25;7.47;;;9.10;99.90;;;;;;4982940;28;20125;-79
2022/03/14 06:23:04;;;;;;;9.27;5.95;;;9.00;99.90;;;;;;4985724;28;20095;-79
2022/03/14 06:25:30;;;;;;;9.43;5.50;;;9.10;99.90;;;;;;4983884;28;20080;-78
2022/03/14 06:27:55;;;;;;;7.53;5.82;;;9.10;99.90;;;;;;5001603;28;20037;-79
2022/03/14 06:30:21;;;;;;;6.70;5.05;;;9.10;99.90;;;;;;4998591;28;20506;-79
2022/03/14 06:32:48;;;;;;;8.50;6.03;;;9.10;99.90;;;;;;4968956;28;20061;-80
2022/03/14 06:35:14;;;;;;;5.60;3.95;;;9.20;99.90;;;;;;4978504;28;20022;-79
2022/03/14 06:37:40;;;;;;;7.72;5.43;;;9.20;99.90;;;;;;4982715;28;20711;-80
2022/03/14 06:40:06;;;;;;;8.05;5.32;;;9.30;99.90;;;;;;4974526;28;20040;-81
2022/03/14 06:42:31;;;;;;;7.65;5.50;;;9.20;99.90;;;;;;4974346;28;20025;-79
2022/03/14 06:45:02;;;;;;;5.00;2.58;;;9.20;99.90;;;;;;4986355;28;20033;-79
2022/03/14 06:47:28;;;;;;;7.00;5.07;;;9.20;99.90;;;;;;4973314;28;20045;-82
2022/03/14 06:49:53;;;;;;;7.38;4.85;;;9.30;99.90;;;;;;4956119;28;20038;-81
2022/03/14 06:52:19;;;;;;;7.35;5.00;;;9.20;99.90;;;;;;4983299;28;20033;-82
2022/03/14 06:54:44;;;;;;;6.32;4.85;;;9.10;99.90;;;;;;4999874;28;20041;-81
2022/03/14 06:57:10;;;;;;;7.25;4.40;;;9.20;99.90;;;;;;4970738;28;20496;-81
2022/03/14 06:59:36;;;;;;;5.63;4.10;;;9.20;99.90;;;;;;4980906;28;20109;-81
2022/03/14 07:02:02;;;;;;;8.20;5.07;;;9.20;99.90;;;;;;4971281;28;20412;-82
2022/03/14 07:04:28;;;;;;;5.80;3.95;;;9.20;99.90;;;;;;4969609;28;20036;-81
2022/03/14 07:06:53;;;;;;;6.95;3.85;;;9.20;99.90;;;;;;4972574;28;20033;-82
2022/03/14 07:09:19;;;;;;;4.80;4.25;;;9.20;99.90;;;;;;4969075;28;20052;-80
2022/03/14 07:11:45;;;;;;;5.55;3.53;;;9.10;99.90;;;;;;4996679;28;20126;-79
2022/03/14 07:14:10;;;;;;;6.50;4.47;;;9.10;99.90;;;;;;4971294;28;20116;-79
2022/03/14 07:16:36;;;;;;;6.55;4.70;;;9.10;99.90;;;;;;4983285;28;20394;-80
2022/03/14 07:19:01;;;;;;;6.05;3.55;;;9.20;99.90;;;;;;4982106;28;20053;-79
2022/03/14 07:21:29;;;;;;;4.88;3.53;;;9.20;99.90;;;;;;4996827;28;20117;-80
2022/03/14 07:23:56;;;;;;;4.97;3.47;;;9.20;99.90;;;;;;4978934;28;20219;-80
2022/03/14 07:26:21;;;;;;;4.97;2.97;;;9.20;99.90;;;;;;4983132;28;20029;-79
2022/03/14 07:28:48;;;;;;;6.40;4.68;;;9.10;99.90;;;;;;4985501;28;20037;-80
2022/03/14 07:31:14;;;;;;;4.60;3.75;;;9.10;99.90;;;;;;4997973;28;20030;-79
2022/03/14 07:33:39;;;;;;;5.78;3.47;;;9.20;99.90;;;;;;5018322;28;20048;-80
2022/03/14 07:36:05;;;;;;;6.32;3.67;;;9.20;99.90;;;;;;4982746;28;20033;-80
2022/03/14 07:38:30;;;;;;;6.10;3.88;;;9.10;99.90;;;;;;4984782;28;20038;-80
2022/03/14 07:40:56;;;;;;;5.30;3.67;;;9.20;99.90;;;;;;4987624;28;20476;-80
2022/03/14 07:43:21;;;;;;;6.80;3.53;;;9.20;99.90;;;;;;4989536;28;20041;-79
2022/03/14 07:45:48;;;;;;;5.43;3.63;;;9.20;99.90;;;;;;4988016;28;20026;-80
2022/03/14 07:48:13;;;;;;;4.82;3.47;;;9.30;99.90;;;;;;4987796;28;20029;-80
2022/03/14 07:50:39;;;;;;;4.80;3.25;;;9.30;99.90;;;;;;4985294;28;20025;-80
2022/03/14 07:53:06;;;;;;;4.32;2.90;;;9.30;99.90;;;;;;4969274;28;20249;-79
2022/03/14 07:55:32;;;;;;;2.25;2.03;;;9.40;99.90;;;;;;5001727;28;20489;-79
2022/03/14 07:57:57;;;;;;;6.22;4.47;;;9.30;99.90;;;;;;4976428;28;20033;-79
2022/03/14 08:00:23;;;;;;;4.93;3.20;;;9.30;99.90;;;;;;4971608;28;20052;-80
2022/03/14 08:02:49;;;;;;;5.13;2.70;;;9.40;99.90;;;;;;5005615;28;20132;-80
2022/03/14 08:05:16;;;;;;;11.20;5.05;;;9.40;99.90;;;;;;5002466;28;20521;-79
2022/03/14 08:07:44;;;;;;;5.10;2.35;;;9.40;99.90;;;;;;4977143;28;20477;-80
2022/03/14 08:10:10;;;;;;;7.22;4.15;;;9.40;99.90;;;;;;4977595;28;20139;-80
2022/03/14 08:12:43;;;;;;;5.05;2.42;;;9.50;99.90;;;;;;4988923;28;20416;-80
2022/03/14 08:15:09;;;;;;;4.57;3.15;;;9.50;99.90;;;;;;4990879;28;20037;-81
2022/03/14 08:17:35;;;;;;;4.97;3.00;;;9.60;99.90;;;;;;4986098;28;20034;-81
2022/03/14 08:20:02;;;;;;;4.93;3.72;;;9.60;99.90;;;;;;4987460;28;20125;-81
2022/03/14 08:22:27;;;;;;;4.63;2.92;;;9.60;99.90;;;;;;4991508;28;20132;-81
2022/03/14 08:24:53;;;;;;;6.82;3.80;;;9.60;99.90;;;;;;4973309;28;20030;-80
2022/03/14 08:27:18;;;;;;;6.25;2.92;;;9.60;99.90;;;;;;5004107;28;20045;-80
2022/03/14 08:29:44;;;;;;;8.13;3.70;;;9.70;99.90;;;;;;4977024;28;20026;-81
2022/03/14 08:32:10;;;;;;;4.80;3.22;;;9.70;99.90;;;;;;4988140;28;20029;-82
2022/03/14 08:34:36;;;;;;;8.68;3.72;;;9.80;99.90;;;;;;4973775;28;20029;-80
2022/03/14 08:37:01;;;;;;;4.60;2.70;;;9.80;99.90;;;;;;4968083;28;20053;-80
2022/03/14 08:39:31;;;;;;;5.07;3.13;;;9.80;99.90;;;;;;5001039;28;20177;-80
2022/03/14 08:41:57;;;;;;;4.38;2.45;;;9.90;99.90;;;;;;4997377;28;20036;-80
2022/03/14 08:44:23;;;;;;;4.43;3.08;;;9.90;99.90;;;;;;4988097;28;20041;-81
2022/03/14 08:46:48;;;;;;;6.03;3.17;;;10.00;99.90;;;;;;4993593;28;20455;-80
2022/03/14 08:49:14;;;;;;;5.70;3.90;;;10.00;99.90;;;;;;4997435;28;20021;-79
2022/03/14 08:51:40;;;;;;;5.25;2.50;;;10.10;99.90;;;;;;4989387;28;20060;-79
2022/03/14 08:54:06;;;;;;;8.75;2.95;;;10.10;99.90;;;;;;4983734;28;20053;-79
2022/03/14 08:56:33;;;;;;;3.22;1.75;;;10.20;99.90;;;;;;4997504;28;20065;-80
2022/03/14 08:58:58;;;;;;;7.97;2.92;;;10.20;99.90;;;;;;4990269;28;20038;-80
2022/03/14 09:01:24;;;;;;;2.72;2.00;;;10.30;99.90;;;;;;4985266;28;20051;-80
2022/03/14 09:03:51;;;;;;;9.57;3.35;;;10.40;99.90;;;;;;4981672;28;20501;-80
2022/03/14 09:06:18;;;;;;;5.63;3.90;;;10.50;99.90;;;;;;4997345;28;20100;-79
2022/03/14 09:08:43;;;;;;;10.70;3.25;;;10.50;99.90;;;;;;4974100;28;20123;-79
2022/03/14 09:11:09;;;;;;;5.90;2.15;;;10.50;99.90;;;;;;4998088;28;20034;-80
2022/03/14 09:13:34;;;;;;;10.15;4.70;;;10.70;99.90;;;;;;4966559;28;20038;-81
2022/03/14 09:16:00;;;;;;;8.90;4.40;;;10.60;99.90;;;;;;4987487;28;20034;-79
2022/03/14 09:18:30;;;;;;;1.63;1.52;;;10.70;99.90;;;;;;4981811;28;20030;-79
2022/03/14 09:20:56;;;;;;;10.75;4.10;;;10.80;99.90;;;;;;4982002;28;20094;-80
2022/03/14 09:23:23;;;;;;;6.80;3.50;;;10.70;99.90;;;;;;4972556;28;20022;-80
2022/03/14 09:25:48;;;;;;;9.55;4.38;;;10.90;99.90;;;;;;4986725;28;20112;-79
2022/03/14 09:28:15;;;;;;;6.30;3.97;;;10.80;99.90;;;;;;4993666;28;20473;-79
2022/03/14 09:30:41;;;;;;;9.48;4.85;;;10.90;99.90;;;;;;4996806;28;20037;-79
2022/03/14 09:33:07;;;;;;;9.82;4.47;;;11.10;99.90;;;;;;4989357;28;20033;-79
2022/03/14 09:35:34;;;;;;;3.30;2.05;;;11.10;99.90;;;;;;4973161;28;20029;-79
2022/03/14 09:37:59;;;;;;;8.23;3.75;;;11.20;99.90;;;;;;4990248;28;20053;-80
2022/03/14 09:40:25;;;;;;;14.43;5.32;;;11.30;99.90;;;;;;4987269;28;20497;-80
2022/03/14 09:42:53;;;;;;;8.27;3.28;;;11.40;99.90;;;;;;4979975;28;20113;-79
2022/03/14 09:45:19;;;;;;;7.65;4.28;;;11.50;99.90;;;;;;4971202;28;20280;-80
2022/03/14 09:48:05;;;;;;;8.73;3.90;;;11.50;99.90;;;;;;4987676;28;20499;-80
2022/03/14 09:50:36;;;;;;;9.98;3.63;;;11.40;99.90;;;;;;4978128;28;20030;-79
2022/03/14 09:53:09;;;;;;;4.72;2.30;;;11.70;99.90;;;;;;4994311;28;20030;-80
2022/03/14 09:55:43;;;;;;;9.65;3.33;;;11.80;99.90;;;;;;4985054;28;20036;-79
2022/03/14 09:58:13;;;;;;;5.78;2.88;;;11.80;99.90;;;;;;4980184;28;20033;-79
2022/03/14 10:00:39;;;;;;;4.55;2.58;;;11.90;99.90;;;;;;4996528;28;20096;-80
2022/03/14 10:03:05;;;;;;;10.55;4.38;;;11.80;99.90;;;;;;4979137;28;20037;-79
2022/03/14 10:05:30;;;;;;;8.52;3.45;;;12.10;99.90;;;;;;4967161;28;20029;-80
2022/03/14 10:07:56;;;;;;;18.17;5.07;;;12.20;99.90;;;;;;4999324;28;20060;-79
2022/03/14 10:10:22;;;;;;;5.13;2.45;;;12.40;99.90;;;;;;4978818;28;20132;-80
2022/03/14 10:12:52;;;;;;;7.82;4.30;;;12.30;99.90;;;;;;4994218;28;20673;-79
2022/03/14 10:15:45;;;;;;;8.02;2.70;;;12.50;99.90;;;;;;4983817;28;20041;-79
2022/03/14 10:18:15;;;;;;;9.57;3.35;;;12.60;99.90;;;;;;4985301;28;20489;-79
2022/03/14 10:20:55;;;;;;;7.35;3.83;;;12.60;99.90;;;;;;4972396;28;20727;-78
2022/03/14 10:23:41;;;;;;;7.38;4.38;;;12.50;99.90;;;;;;4987449;28;20098;-79
2022/03/14 10:26:07;;;;;;;8.93;3.97;;;12.30;99.90;;;;;;4987072;28;20034;-78
2022/03/14 10:28:35;;;;;;;7.57;3.65;;;12.60;99.90;;;;;;4994097;28;20026;-78
2022/03/14 10:31:02;;;;;;;7.68;3.42;;;12.60;99.90;;;;;;4995970;28;20111;-77
2022/03/14 10:33:28;;;;;;;4.85;3.00;;;12.60;99.90;;;;;;4987140;28;21015;-78
2022/03/14 10:35:55;;;;;;;6.25;3.20;;;12.50;99.90;;;;;;4971465;28;20393;-77
2022/03/14 10:38:21;;;;;;;8.35;3.78;;;12.60;99.90;;;;;;4968676;28;20032;-78
2022/03/14 10:40:47;;;;;;;11.57;4.05;;;12.50;99.90;;;;;;4975020;28;20030;-78
2022/03/14 10:43:28;;;;;;;5.63;3.47;;;12.60;99.90;;;;;;4966738;28;20026;-79
2022/03/14 10:45:55;;;;;;;3.95;2.17;;;12.80;99.90;;;;;;4986548;28;20026;-77
2022/03/14 10:48:50;;;;;;;6.78;3.47;;;12.80;99.90;;;;;;4988438;28;20065;-78
2022/03/14 10:51:24;;;;;;;9.10;3.58;;;12.70;99.90;;;;;;4973578;28;20053;-77
2022/03/14 10:53:49;;;;;;;7.68;3.67;;;12.50;99.90;;;;;;4995353;28;20044;-77
2022/03/14 10:56:16;;;;;;;7.57;3.90;;;12.70;99.90;;;;;;4295524;28;10000027;-79
2022/03/14 10:58:43;;;;;;;5.18;2.45;;;12.70;99.90;;;;;;4979749;28;20050;-78
2022/03/14 11:01:10;;;;;;;16.35;4.18;;;12.80;99.90;;;;;;4976396;28;20033;-77
2022/03/14 11:03:37;;;;;;;5.30;4.25;;;12.80;99.90;;;;;;4995945;28;20063;-77
2022/03/14 11:06:04;;;;;;;6.70;3.17;;;13.00;99.90;;;;;;4968404;28;20025;-78
2022/03/14 11:08:39;;;;;;;3.38;1.88;;;13.00;99.90;;;;;;4969342;28;20045;-78
2022/03/14 11:11:12;;;;;;;7.82;4.22;;;13.10;99.90;;;;;;5009455;28;20030;-78
2022/03/14 11:13:45;;;;;;;7.82;3.90;;;13.10;99.90;;;;;;4977072;28;20030;-78
2022/03/14 11:16:30;;;;;;;8.75;5.25;;;13.30;99.90;;;;;;4992346;28;20602;-78
2022/03/14 11:18:56;;;;;;;9.77;4.32;;;13.10;99.90;;;;;;4981212;28;20041;-78
2022/03/14 11:21:27;;;;;;;9.70;4.72;;;13.10;99.90;;;;;;4979924;28;20084;-78
2022/03/14 11:23:53;;;;;;;9.82;4.70;;;13.30;99.90;;;;;;4963736;28;20518;-78
2022/03/14 11:26:22;;;;;;;8.93;3.95;;;13.80;99.90;;;;;;4975042;28;20548;-78
2022/03/14 11:28:49;;;;;;;10.73;4.13;;;13.90;99.90;;;;;;4964946;28;20049;-77
2022/03/14 11:31:17;;;;;;;7.18;3.45;;;14.10;99.90;;;;;;4991942;28;20080;-78
2022/03/14 11:33:43;;;;;;;7.18;3.70;;;14.00;99.90;;;;;;4968503;28;20030;-77
2022/03/14 11:36:09;;;;;;;7.40;3.50;;;14.20;99.90;;;;;;4972047;28;20444;-77
2022/03/14 11:38:34;;;;;;;8.93;3.97;;;14.20;99.90;;;;;;4982199;28;20030;-77
2022/03/14 11:41:00;;;;;;;5.00;3.42;;;14.30;99.90;;;;;;4967250;28;20043;-77
2022/03/14 11:43:26;;;;;;;6.68;3.13;;;14.60;99.90;;;;;;4994116;28;20481;-78
2022/03/14 11:45:52;;;;;;;7.03;3.83;;;14.90;99.90;;;;;;4971465;28;20088;-79
2022/03/14 11:48:18;;;;;;;5.95;3.60;;;15.00;99.90;;;;;;4981349;28;20030;-78
2022/03/14 11:50:44;;;;;;;8.15;4.40;;;15.10;99.90;;;;;;4973075;28;20386;-77
2022/03/14 11:53:16;;;;;;;7.47;4.00;;;14.90;99.90;;;;;;4996243;28;20034;-77
2022/03/14 11:55:55;;;;;;;6.18;3.03;;;14.90;99.90;;;;;;4965093;28;20030;-79
2022/03/14 11:58:47;;;;;;;11.40;3.92;;;14.70;99.90;;;;;;5009306;28;20527;-77
2022/03/14 12:01:21;;;;;;;10.23;3.60;;;14.50;99.90;;;;;;4993764;28;20040;-78
2022/03/14 12:03:57;;;;;;;4.85;3.35;;;14.60;99.90;;;;;;4942378;28;20026;-78
2022/03/14 12:06:47;;;;;;;6.07;3.97;;;14.60;99.90;;;;;;4972274;28;20037;-78
2022/03/14 12:09:25;;;;;;;8.88;3.50;;;14.70;99.90;;;;;;4996287;28;20092;-78
2022/03/14 12:11:54;;;;;;;5.43;3.20;;;14.60;99.90;;;;;;4999183;28;20030;-79
2022/03/14 12:14:47;;;;;;;6.30;4.32;;;14.50;99.90;;;;;;4969760;28;20112;-80
2022/03/14 12:17:13;;;;;;;8.57;3.60;;;14.40;99.90;;;;;;5012407;28;20053;-79
2022/03/14 12:19:49;;;;;;;12.10;4.05;;;14.40;99.90;;;;;;5013825;28;21245;-80
2022/03/14 12:22:35;;;;;;;10.35;5.20;;;14.50;99.90;;;;;;4988578;28;20375;-79
2022/03/14 12:25:01;;;;;;;6.45;4.30;;;14.40;99.90;;;;;;4984773;28;20452;-78
2022/03/14 12:27:33;;;;;;;7.95;4.20;;;14.40;99.90;;;;;;4968793;28;20033;-79
2022/03/14 12:29:59;;;;;;;8.38;4.55;;;14.30;99.90;;;;;;4985055;28;20168;-77
2022/03/14 12:32:25;;;;;;;9.40;4.80;;;14.40;99.90;;;;;;4981219;28;20069;-77
2022/03/14 12:35:26;;;;;;;7.50;3.90;;;14.40;99.90;;;;;;5006370;28;20092;-78
2022/03/14 12:38:14;;;;;;;7.43;4.35;;;14.40;99.90;;;;;;4969719;28;20038;-80
2022/03/14 12:40:41;;;;;;;11.20;3.53;;;14.40;99.90;;;;;;4984051;28;20050;-79
2022/03/14 12:43:06;;;;;;;7.97;3.85;;;14.40;99.90;;;;;;4974712;28;20030;-80
2022/03/14 12:45:39;;;;;;;7.40;4.13;;;14.30;99.90;;;;;;5005757;28;20513;-79
2022/03/14 12:48:23;;;;;;;8.38;3.45;;;14.30;99.90;;;;;;4996671;28;20030;-78
2022/03/14 12:50:48;;;;;;;12.60;4.32;;;14.10;99.90;;;;;;4989494;28;20034;-77